sensor_id;sensor_type;location;lat;lon;timestamp;pressure;altitude;pressure_sealevel;temperature;humidity
51460;BME280;37534;39.772;2.718;2023-04-06T00:00:37;101647.81;;;9.95;100.00
51460;BME280;37534;39.772;2.718;2023-04-06T00:03:03;101645.31;;;9.90;100.00
51460;BME280;37534;39.772;2.718;2023-04-06T00:05:28;101651.38;;;9.84;100.00
51460;BME280;37534;39.772;2.718;2023-04-06T00:07:57;101646.34;;;9.64;100.00
51460;BME280;37534;39.772;2.718;2023-04-06T00:10:23;101654.06;;;9.64;100.00
51460;BME280;37534;39.772;2.718;2023-04-06T00:12:48;101654.06;;;9.67;100.00
51460;BME280;37534;39.772;2.718;2023-04-06T00:15:14;101651.53;;;9.61;100.00
51460;BME280;37534;39.772;2.718;2023-04-06T00:17:40;101654.09;;;9.63;100.00
51460;BME280;37534;39.772;2.718;2023-04-06T00:20:06;101642.09;;;9.56;100.00
51460;BME280;37534;39.772;2.718;2023-04-06T00:22:32;101646.41;;;9.55;100.00
51460;BME280;37534;39.772;2.718;2023-04-06T00:24:57;101639.66;;;9.37;100.00
51460;BME280;37534;39.772;2.718;2023-04-06T00:27:23;101651.72;;;9.32;100.00
51460;BME280;37534;39.772;2.718;2023-04-06T00:29:49;101656.88;;;9.29;100.00
51460;BME280;37534;39.772;2.718;2023-04-06T00:32:15;101650.03;;;9.25;100.00
51460;BME280;37534;39.772;2.718;2023-04-06T00:34:41;101650.91;;;9.22;100.00
51460;BME280;37534;39.772;2.718;2023-04-06T00:37:06;101656.91;;;9.21;100.00
51460;BME280;37534;39.772;2.718;2023-04-06T00:39:32;101642.38;;;9.14;100.00
51460;BME280;37534;39.772;2.718;2023-04-06T00:41:58;101638.94;;;9.12;100.00
51460;BME280;37534;39.772;2.718;2023-04-06T00:44:24;101644.88;;;9.25;100.00
51460;BME280;37534;39.772;2.718;2023-04-06T00:46:49;101646.50;;;9.43;100.00
51460;BME280;37534;39.772;2.718;2023-04-06T00:49:15;101651.63;;;9.46;100.00
51460;BME280;37534;39.772;2.718;2023-04-06T00:51:40;101648.25;;;9.38;100.00
51460;BME280;37534;39.772;2.718;2023-04-06T00:54:06;101651.66;;;9.41;100.00
51460;BME280;37534;39.772;2.718;2023-04-06T00:56:31;101648.38;;;9.14;100.00
51460;BME280;37534;39.772;2.718;2023-04-06T00:58:57;101649.25;;;9.07;100.00
51460;BME280;37534;39.772;2.718;2023-04-06T01:01:23;101658.72;;;9.02;100.00
51460;BME280;37534;39.772;2.718;2023-04-06T01:03:49;101653.59;;;8.96;100.00
51460;BME280;37534;39.772;2.718;2023-04-06T01:06:15;101658.75;;;8.91;100.00
51460;BME280;37534;39.772;2.718;2023-04-06T01:08:41;101654.47;;;8.93;100.00
51460;BME280;37534;39.772;2.718;2023-04-06T01:11:07;101645.00;;;9.02;100.00
51460;BME280;37534;39.772;2.718;2023-04-06T01:13:32;101645.00;;;9.00;100.00
51460;BME280;37534;39.772;2.718;2023-04-06T01:15:58;101640.69;;;9.07;100.00
51460;BME280;37534;39.772;2.718;2023-04-06T01:18:27;101644.09;;;9.07;100.00
51460;BME280;37534;39.772;2.718;2023-04-06T01:20:53;101637.31;;;8.92;100.00
51460;BME280;37534;39.772;2.718;2023-04-06T01:23:19;101642.47;;;8.86;100.00
51460;BME280;37534;39.772;2.718;2023-04-06T01:25:44;101639.94;;;8.77;100.00
51460;BME280;37534;39.772;2.718;2023-04-06T01:28:10;101630.53;;;8.67;100.00
51460;BME280;37534;39.772;2.718;2023-04-06T01:30:36;101633.16;;;8.65;100.00
51460;BME280;37534;39.772;2.718;2023-04-06T01:33:01;101634.00;;;8.69;100.00
51460;BME280;37534;39.772;2.718;2023-04-06T01:35:27;101638.25;;;8.67;100.00
51460;BME280;37534;39.772;2.718;2023-04-06T01:37:53;101618.56;;;8.63;100.00
51460;BME280;37534;39.772;2.718;2023-04-06T01:40:19;101629.69;;;8.71;100.00
51460;BME280;37534;39.772;2.718;2023-04-06T01:42:46;101616.88;;;8.62;100.00
51460;BME280;37534;39.772;2.718;2023-04-06T01:45:11;101627.13;;;8.68;100.00
51460;BME280;37534;39.772;2.718;2023-04-06T01:47:37;101624.56;;;8.63;100.00
51460;BME280;37534;39.772;2.718;2023-04-06T01:50:02;101628.00;;;8.57;100.00
51460;BME280;37534;39.772;2.718;2023-04-06T01:52:31;101626.31;;;8.49;100.00
51460;BME280;37534;39.772;2.718;2023-04-06T01:54:57;101626.34;;;8.46;100.00
51460;BME280;37534;39.772;2.718;2023-04-06T01:57:22;101638.31;;;8.50;100.00
51460;BME280;37534;39.772;2.718;2023-04-06T01:59:48;101633.19;;;8.51;100.00
51460;BME280;37534;39.772;2.718;2023-04-06T02:02:13;101632.34;;;8.43;100.00
51460;BME280;37534;39.772;2.718;2023-04-06T02:04:39;101640.91;;;8.39;100.00
51460;BME280;37534;39.772;2.718;2023-04-06T02:07:04;101635.75;;;8.36;100.00
51460;BME280;37534;39.772;2.718;2023-04-06T02:09:30;101636.63;;;8.32;100.00
51460;BME280;37534;39.772;2.718;2023-04-06T02:11:56;101644.34;;;8.23;100.00
51460;BME280;37534;39.772;2.718;2023-04-06T02:14:25;101640.09;;;8.15;100.00
51460;BME280;37534;39.772;2.718;2023-04-06T02:16:51;101634.06;;;8.18;100.00
51460;BME280;37534;39.772;2.718;2023-04-06T02:19:16;101642.63;;;8.37;100.00
51460;BME280;37534;39.772;2.718;2023-04-06T02:21:42;101647.75;;;8.43;100.00
51460;BME280;37534;39.772;2.718;2023-04-06T02:24:08;101640.91;;;8.39;100.00
51460;BME280;37534;39.772;2.718;2023-04-06T02:26:33;101649.47;;;8.32;100.00
51460;BME280;37534;39.772;2.718;2023-04-06T02:28:59;101646.94;;;8.23;100.00
51460;BME280;37534;39.772;2.718;2023-04-06T02:31:24;101656.34;;;8.24;100.00
51460;BME280;37534;39.772;2.718;2023-04-06T02:33:50;101635.75;;;8.21;100.00
51460;BME280;37534;39.772;2.718;2023-04-06T02:36:15;101635.78;;;8.14;100.00
51460;BME280;37534;39.772;2.718;2023-04-06T02:38:41;101646.94;;;8.12;100.00
51460;BME280;37534;39.772;2.718;2023-04-06T02:41:07;101652.94;;;8.09;100.00
51460;BME280;37534;39.772;2.718;2023-04-06T02:43:32;101647.81;;;8.03;100.00
51460;BME280;37534;39.772;2.718;2023-04-06T02:45:58;101652.94;;;8.12;100.00
51460;BME280;37534;39.772;2.718;2023-04-06T02:48:24;101640.91;;;8.11;100.00
51460;BME280;37534;39.772;2.718;2023-04-06T02:50:49;101651.16;;;8.31;100.00
51460;BME280;37534;39.772;2.718;2023-04-06T02:53:15;101652.03;;;8.26;100.00
51460;BME280;37534;39.772;2.718;2023-04-06T02:55:40;101645.19;;;8.20;100.00
51460;BME280;37534;39.772;2.718;2023-04-06T02:58:06;101651.22;;;8.14;100.00
51460;BME280;37534;39.772;2.718;2023-04-06T03:00:32;101637.50;;;8.05;100.00
51460;BME280;37534;39.772;2.718;2023-04-06T03:02:57;101646.09;;;8.05;100.00
51460;BME280;37534;39.772;2.718;2023-04-06T03:05:23;101645.22;;;8.06;100.00
51460;BME280;37534;39.772;2.718;2023-04-06T03:07:48;101641.78;;;8.06;100.00
51460;BME280;37534;39.772;2.718;2023-04-06T03:10:14;101631.53;;;8.12;100.00
51460;BME280;37534;39.772;2.718;2023-04-06T03:12:39;101640.06;;;8.23;100.00
51460;BME280;37534;39.772;2.718;2023-04-06T03:15:07;101640.06;;;8.12;100.00
51460;BME280;37534;39.772;2.718;2023-04-06T03:17:33;101630.63;;;8.08;100.00
51460;BME280;37534;39.772;2.718;2023-04-06T03:19:59;101628.94;;;8.01;100.00
51460;BME280;37534;39.772;2.718;2023-04-06T03:22:24;101629.81;;;8.02;100.00
51460;BME280;37534;39.772;2.718;2023-04-06T03:24:50;101618.69;;;7.98;100.00
51460;BME280;37534;39.772;2.718;2023-04-06T03:27:15;101634.94;;;8.12;100.00
51460;BME280;37534;39.772;2.718;2023-04-06T03:29:41;101641.78;;;8.10;100.00
51460;BME280;37534;39.772;2.718;2023-04-06T03:32:06;101628.94;;;7.98;100.00
51460;BME280;37534;39.772;2.718;2023-04-06T03:34:32;101640.94;;;7.99;100.00
51460;BME280;37534;39.772;2.718;2023-04-06T03:36:57;101627.25;;;8.00;100.00
51460;BME280;37534;39.772;2.718;2023-04-06T03:39:23;101634.94;;;8.12;100.00
51460;BME280;37534;39.772;2.718;2023-04-06T03:41:48;101632.38;;;8.12;100.00
51460;BME280;37534;39.772;2.718;2023-04-06T03:44:14;101635.81;;;8.04;100.00
51460;BME280;37534;39.772;2.718;2023-04-06T03:46:40;101627.22;;;7.95;100.00
51460;BME280;37534;39.772;2.718;2023-04-06T03:49:05;101629.81;;;7.92;100.00
51460;BME280;37534;39.772;2.718;2023-04-06T03:51:31;101628.09;;;7.90;100.00
51460;BME280;37534;39.772;2.718;2023-04-06T03:53:57;101635.78;;;7.90;100.00
51460;BME280;37534;39.772;2.718;2023-04-06T03:56:22;101622.09;;;7.75;100.00
51460;BME280;37534;39.772;2.718;2023-04-06T03:58:48;101637.50;;;7.74;100.00
51460;BME280;37534;39.772;2.718;2023-04-06T04:01:17;101634.09;;;7.73;100.00
51460;BME280;37534;39.772;2.718;2023-04-06T04:03:45;101626.38;;;7.63;100.00
51460;BME280;37534;39.772;2.718;2023-04-06T04:06:11;101639.19;;;7.67;100.00
51460;BME280;37534;39.772;2.718;2023-04-06T04:08:36;101638.34;;;7.64;100.00
51460;BME280;37534;39.772;2.718;2023-04-06T04:11:02;101629.78;;;7.55;100.00
51460;BME280;37534;39.772;2.718;2023-04-06T04:13:27;101622.06;;;7.48;100.00
51460;BME280;37534;39.772;2.718;2023-04-06T04:15:53;101640.91;;;7.53;100.00
51460;BME280;37534;39.772;2.718;2023-04-06T04:18:18;101631.50;;;7.63;100.00
51460;BME280;37534;39.772;2.718;2023-04-06T04:20:44;101643.50;;;7.65;100.00
51460;BME280;37534;39.772;2.718;2023-04-06T04:23:10;101633.22;;;7.65;100.00
51460;BME280;37534;39.772;2.718;2023-04-06T04:25:36;101646.94;;;7.72;100.00
51460;BME280;37534;39.772;2.718;2023-04-06T04:28:02;101646.06;;;7.68;100.00
51460;BME280;37534;39.772;2.718;2023-04-06T04:30:27;101644.38;;;7.64;100.00
51460;BME280;37534;39.772;2.718;2023-04-06T04:32:53;101646.06;;;7.65;100.00
51460;BME280;37534;39.772;2.718;2023-04-06T04:35:19;101649.50;;;7.64;100.00
51460;BME280;37534;39.772;2.718;2023-04-06T04:37:45;101644.38;;;7.64;100.00
51460;BME280;37534;39.772;2.718;2023-04-06T04:40:11;101640.06;;;7.61;100.00
51460;BME280;37534;39.772;2.718;2023-04-06T04:42:37;101623.81;;;7.52;100.00
51460;BME280;37534;39.772;2.718;2023-04-06T04:45:02;101634.94;;;7.66;100.00
51460;BME280;37534;39.772;2.718;2023-04-06T04:47:28;101622.94;;;7.68;100.00
51460;BME280;37534;39.772;2.718;2023-04-06T04:49:54;101630.63;;;7.62;100.00
51460;BME280;37534;39.772;2.718;2023-04-06T04:52:19;101639.22;;;7.70;100.00
51460;BME280;37534;39.772;2.718;2023-04-06T04:54:45;101637.47;;;7.60;100.00
51460;BME280;37534;39.772;2.718;2023-04-06T04:57:12;101636.63;;;7.52;100.00
51460;BME280;37534;39.772;2.718;2023-04-06T04:59:38;101636.63;;;7.50;100.00
51460;BME280;37534;39.772;2.718;2023-04-06T05:02:03;101634.06;;;7.58;100.00
51460;BME280;37534;39.772;2.718;2023-04-06T05:04:29;101638.31;;;7.43;100.00
51460;BME280;37534;39.772;2.718;2023-04-06T05:07:05;101647.75;;;7.41;100.00
51460;BME280;37534;39.772;2.718;2023-04-06T05:09:31;101652.84;;;7.38;100.00
51460;BME280;37534;39.772;2.718;2023-04-06T05:11:57;101655.44;;;7.41;100.00
51460;BME280;37534;39.772;2.718;2023-04-06T05:14:23;101652.84;;;7.38;100.00
51460;BME280;37534;39.772;2.718;2023-04-06T05:16:49;101652.88;;;7.45;100.00
51460;BME280;37534;39.772;2.718;2023-04-06T05:19:14;101654.56;;;7.38;100.00
51460;BME280;37534;39.772;2.718;2023-04-06T05:21:41;101659.75;;;7.58;100.00
51460;BME280;37534;39.772;2.718;2023-04-06T05:24:06;101667.44;;;7.58;100.00
51460;BME280;37534;39.772;2.718;2023-04-06T05:26:32;101652.84;;;7.35;100.00
51460;BME280;37534;39.772;2.718;2023-04-06T05:28:57;101663.97;;;7.39;100.00
51460;BME280;37534;39.772;2.718;2023-04-06T05:31:23;101671.69;;;7.39;100.00
51460;BME280;37534;39.772;2.718;2023-04-06T05:33:49;101672.53;;;7.33;100.00
51460;BME280;37534;39.772;2.718;2023-04-06T05:36:14;101667.41;;;7.35;100.00
51460;BME280;37534;39.772;2.718;2023-04-06T05:38:40;101650.28;;;7.29;100.00
51460;BME280;37534;39.772;2.718;2023-04-06T05:41:06;101676.84;;;7.37;100.00
51460;BME280;37534;39.772;2.718;2023-04-06T05:43:31;101678.50;;;7.35;100.00
51460;BME280;37534;39.772;2.718;2023-04-06T05:45:57;101689.66;;;7.40;100.00
51460;BME280;37534;39.772;2.718;2023-04-06T05:48:22;101689.66;;;7.42;100.00
51460;BME280;37534;39.772;2.718;2023-04-06T05:50:49;101686.28;;;7.46;100.00
51460;BME280;37534;39.772;2.718;2023-04-06T05:53:18;101679.41;;;7.45;100.00
51460;BME280;37534;39.772;2.718;2023-04-06T05:55:44;101682.84;;;7.41;100.00
51460;BME280;37534;39.772;2.718;2023-04-06T05:58:09;101694.84;;;7.48;100.00
51460;BME280;37534;39.772;2.718;2023-04-06T06:00:35;101687.13;;;7.50;100.00
51460;BME280;37534;39.772;2.718;2023-04-06T06:03:00;101699.09;;;7.51;100.00
51460;BME280;37534;39.772;2.718;2023-04-06T06:05:29;101691.41;;;7.60;100.00
51460;BME280;37534;39.772;2.718;2023-04-06T06:07:55;101698.28;;;7.78;100.00
51460;BME280;37534;39.772;2.718;2023-04-06T06:10:20;101700.03;;;7.90;100.00
51460;BME280;37534;39.772;2.718;2023-04-06T06:12:46;101694.03;;;7.81;100.00
51460;BME280;37534;39.772;2.718;2023-04-06T06:15:12;101688.91;;;7.69;100.00
51460;BME280;37534;39.772;2.718;2023-04-06T06:17:37;101694.88;;;7.70;100.00
51460;BME280;37534;39.772;2.718;2023-04-06T06:20:06;101695.75;;;7.73;100.00
51460;BME280;37534;39.772;2.718;2023-04-06T06:22:31;101694.88;;;7.79;100.00
51460;BME280;37534;39.772;2.718;2023-04-06T06:24:57;101695.72;;;7.79;100.00
51460;BME280;37534;39.772;2.718;2023-04-06T06:27:22;101690.63;;;7.89;100.00
51460;BME280;37534;39.772;2.718;2023-04-06T06:29:48;101702.63;;;7.96;100.00
51460;BME280;37534;39.772;2.718;2023-04-06T06:32:14;101690.63;;;7.95;100.00
51460;BME280;37534;39.772;2.718;2023-04-06T06:34:39;101697.47;;;8.02;100.00
51460;BME280;37534;39.772;2.718;2023-04-06T06:37:05;101691.47;;;8.28;100.00
51460;BME280;37534;39.772;2.718;2023-04-06T06:39:31;101704.31;;;8.55;100.00
51460;BME280;37534;39.772;2.718;2023-04-06T06:41:56;101706.88;;;8.69;100.00
51460;BME280;37534;39.772;2.718;2023-04-06T06:44:22;101706.84;;;8.82;100.00
51460;BME280;37534;39.772;2.718;2023-04-06T06:46:48;101714.53;;;8.96;100.00
51460;BME280;37534;39.772;2.718;2023-04-06T06:49:13;101704.19;;;9.08;100.00
51460;BME280;37534;39.772;2.718;2023-04-06T06:51:39;101694.69;;;9.16;100.00
51460;BME280;37534;39.772;2.718;2023-04-06T06:54:05;101715.19;;;9.45;100.00
51460;BME280;37534;39.772;2.718;2023-04-06T06:56:31;101697.88;;;9.67;100.00
51460;BME280;37534;39.772;2.718;2023-04-06T06:58:57;101710.53;;;9.98;100.00
51460;BME280;37534;39.772;2.718;2023-04-06T07:01:22;101702.59;;;10.24;100.00
51460;BME280;37534;39.772;2.718;2023-04-06T07:03:48;101692.06;;;10.49;100.00
51460;BME280;37534;39.772;2.718;2023-04-06T07:06:13;101699.44;;;10.84;100.00
51460;BME280;37534;39.772;2.718;2023-04-06T07:08:39;101700.78;;;11.18;100.00
51460;BME280;37534;39.772;2.718;2023-04-06T07:11:04;101682.38;;;11.41;100.00
51460;BME280;37534;39.772;2.718;2023-04-06T07:13:30;101690.41;;;11.82;100.00
51460;BME280;37534;39.772;2.718;2023-04-06T07:15:56;101707.19;;;12.13;100.00
51460;BME280;37534;39.772;2.718;2023-04-06T07:18:22;101708.41;;;12.42;100.00
51460;BME280;37534;39.772;2.718;2023-04-06T07:20:47;101717.31;;;12.76;100.00
51460;BME280;37534;39.772;2.718;2023-04-06T07:23:13;101719.16;;;13.12;100.00
51460;BME280;37534;39.772;2.718;2023-04-06T07:25:38;101730.50;;;13.49;100.00
51460;BME280;37534;39.772;2.718;2023-04-06T07:28:04;101727.88;;;13.90;100.00
51460;BME280;37534;39.772;2.718;2023-04-06T07:30:30;101731.13;;;14.34;100.00
51460;BME280;37534;39.772;2.718;2023-04-06T07:32:56;101737.66;;;14.81;95.67
51460;BME280;37534;39.772;2.718;2023-04-06T07:35:25;101734.78;;;15.52;88.86
51460;BME280;37534;39.772;2.718;2023-04-06T07:37:52;101738.53;;;16.26;84.89
51460;BME280;37534;39.772;2.718;2023-04-06T07:40:18;101731.22;;;17.79;74.27
51460;BME280;37534;39.772;2.718;2023-04-06T07:42:45;101740.34;;;19.14;66.64
51460;BME280;37534;39.772;2.718;2023-04-06T07:45:11;101734.47;;;20.20;63.05
51460;BME280;37534;39.772;2.718;2023-04-06T07:47:36;101749.81;;;21.12;56.60
51460;BME280;37534;39.772;2.718;2023-04-06T07:50:02;101739.97;;;22.26;50.36
51460;BME280;37534;39.772;2.718;2023-04-06T07:52:28;101752.38;;;21.77;45.77
51460;BME280;37534;39.772;2.718;2023-04-06T07:54:53;101757.03;;;21.40;48.38
51460;BME280;37534;39.772;2.718;2023-04-06T07:57:19;101756.66;;;22.10;46.18
51460;BME280;37534;39.772;2.718;2023-04-06T07:59:45;101747.84;;;22.26;44.82
51460;BME280;37534;39.772;2.718;2023-04-06T08:02:10;101751.72;;;23.22;43.22
51460;BME280;37534;39.772;2.718;2023-04-06T08:04:36;101752.03;;;23.99;40.47
51460;BME280;37534;39.772;2.718;2023-04-06T08:07:02;101754.88;;;24.75;40.25
51460;BME280;37534;39.772;2.718;2023-04-06T08:09:27;101752.13;;;24.63;39.25
51460;BME280;37534;39.772;2.718;2023-04-06T08:11:53;101766.84;;;25.30;38.55
51460;BME280;37534;39.772;2.718;2023-04-06T08:14:19;101768.19;;;26.44;37.00
51460;BME280;37534;39.772;2.718;2023-04-06T08:16:45;101770.91;;;26.78;36.41
51460;BME280;37534;39.772;2.718;2023-04-06T08:19:11;101762.38;;;27.52;35.15
51460;BME280;37534;39.772;2.718;2023-04-06T08:21:36;101764.25;;;27.72;34.37
51460;BME280;37534;39.772;2.718;2023-04-06T08:24:02;101768.50;;;27.96;34.15
51460;BME280;37534;39.772;2.718;2023-04-06T08:26:28;101776.28;;;29.12;33.45
51460;BME280;37534;39.772;2.718;2023-04-06T08:28:53;101776.84;;;29.76;32.15
51460;BME280;37534;39.772;2.718;2023-04-06T08:31:19;101770.34;;;30.37;31.64
51460;BME280;37534;39.772;2.718;2023-04-06T08:33:45;101768.47;;;31.22;30.41
51460;BME280;37534;39.772;2.718;2023-04-06T08:36:12;101781.09;;;31.84;29.40
51460;BME280;37534;39.772;2.718;2023-04-06T08:38:38;101776.47;;;31.94;29.00
51460;BME280;37534;39.772;2.718;2023-04-06T08:41:10;101774.34;;;31.44;29.31
51460;BME280;37534;39.772;2.718;2023-04-06T08:43:48;101778.84;;;31.43;28.70
51460;BME280;37534;39.772;2.718;2023-04-06T08:46:15;101780.56;;;31.62;29.01
51460;BME280;37534;39.772;2.718;2023-04-06T08:48:42;101785.13;;;32.32;28.17
51460;BME280;37534;39.772;2.718;2023-04-06T08:51:09;101775.50;;;32.66;28.04
51460;BME280;37534;39.772;2.718;2023-04-06T08:53:35;101786.56;;;32.79;28.22
51460;BME280;37534;39.772;2.718;2023-04-06T08:56:02;101789.34;;;33.04;27.93
51460;BME280;37534;39.772;2.718;2023-04-06T08:58:37;101799.63;;;33.25;27.93
51460;BME280;37534;39.772;2.718;2023-04-06T09:01:07;101796.34;;;33.47;26.96
51460;BME280;37534;39.772;2.718;2023-04-06T09:03:40;101790.31;;;33.53;27.17
51460;BME280;37534;39.772;2.718;2023-04-06T09:06:06;101788.69;;;32.41;27.67
51460;BME280;37534;39.772;2.718;2023-04-06T09:08:37;101794.03;;;31.79;28.70
51460;BME280;37534;39.772;2.718;2023-04-06T09:11:03;101786.56;;;32.79;27.88
51460;BME280;37534;39.772;2.718;2023-04-06T09:13:29;101785.34;;;33.00;27.74
51460;BME280;37534;39.772;2.718;2023-04-06T09:16:02;101788.31;;;33.56;27.43
51460;BME280;37534;39.772;2.718;2023-04-06T09:18:29;101788.94;;;33.25;27.18
51460;BME280;37534;39.772;2.718;2023-04-06T09:21:02;101771.97;;;33.00;26.63
51460;BME280;37534;39.772;2.718;2023-04-06T09:23:28;101775.28;;;33.52;26.21
51460;BME280;37534;39.772;2.718;2023-04-06T09:26:14;101782.50;;;33.09;26.64
51460;BME280;37534;39.772;2.718;2023-04-06T09:28:48;101781.34;;;33.87;26.88
51460;BME280;37534;39.772;2.718;2023-04-06T09:31:16;101775.31;;;34.26;26.07
51460;BME280;37534;39.772;2.718;2023-04-06T09:33:44;101773.88;;;32.81;26.16
51460;BME280;37534;39.772;2.718;2023-04-06T09:36:10;101769.53;;;31.02;28.84
51460;BME280;37534;39.772;2.718;2023-04-06T09:38:50;101768.66;;;31.75;28.27
51460;BME280;37534;39.772;2.718;2023-04-06T09:41:31;101767.97;;;32.61;27.52
51460;BME280;37534;39.772;2.718;2023-04-06T09:44:10;101769.56;;;33.31;26.56
51460;BME280;37534;39.772;2.718;2023-04-06T09:46:42;101764.06;;;32.82;27.48
51460;BME280;37534;39.772;2.718;2023-04-06T09:49:09;101766.88;;;32.80;27.89
51460;BME280;37534;39.772;2.718;2023-04-06T09:51:46;101755.03;;;32.83;27.04
51460;BME280;37534;39.772;2.718;2023-04-06T09:54:17;101764.06;;;33.24;27.11
51460;BME280;37534;39.772;2.718;2023-04-06T09:56:56;101772.59;;;32.93;26.80
51460;BME280;37534;39.772;2.718;2023-04-06T10:01:57;101771.59;;;33.37;26.82
51460;BME280;37534;39.772;2.718;2023-04-06T10:04:39;101765.28;;;33.71;26.71
51460;BME280;37534;39.772;2.718;2023-04-06T10:07:07;101756.88;;;33.33;26.89
51460;BME280;37534;39.772;2.718;2023-04-06T10:09:37;101766.59;;;33.59;26.91
51460;BME280;37534;39.772;2.718;2023-04-06T10:12:04;101756.72;;;33.43;26.56
51460;BME280;37534;39.772;2.718;2023-04-06T10:14:34;101762.94;;;33.76;26.82
51460;BME280;37534;39.772;2.718;2023-04-06T10:17:05;101762.94;;;33.60;26.38
51460;BME280;37534;39.772;2.718;2023-04-06T10:25:32;101762.56;;;33.30;26.61
51460;BME280;37534;39.772;2.718;2023-04-06T10:28:09;101752.28;;;32.66;27.68
51460;BME280;37534;39.772;2.718;2023-04-06T10:30:42;101767.22;;;32.51;28.11
51460;BME280;37534;39.772;2.718;2023-04-06T10:33:16;101771.41;;;32.53;28.03
51460;BME280;37534;39.772;2.718;2023-04-06T10:35:42;101763.59;;;32.08;28.70
51460;BME280;37534;39.772;2.718;2023-04-06T10:38:08;101768.47;;;31.94;28.71
51460;BME280;37534;39.772;2.718;2023-04-06T10:40:37;101773.31;;;32.09;28.66
51460;BME280;37534;39.772;2.718;2023-04-06T10:45:33;101759.16;;;31.54;28.88
51460;BME280;37534;39.772;2.718;2023-04-06T10:47:59;101763.56;;;31.63;29.17
51460;BME280;37534;39.772;2.718;2023-04-06T10:50:25;101763.72;;;30.88;30.01
51460;BME280;37534;39.772;2.718;2023-04-06T10:53:01;101762.19;;;30.48;30.70
51460;BME280;37534;39.772;2.718;2023-04-06T10:55:30;101758.31;;;31.08;30.10
51460;BME280;37534;39.772;2.718;2023-04-06T10:57:56;101769.16;;;31.42;29.81
51460;BME280;37534;39.772;2.718;2023-04-06T11:00:22;101764.72;;;31.15;30.15
51460;BME280;37534;39.772;2.718;2023-04-06T11:02:48;101761.91;;;31.17;30.15
51460;BME280;37534;39.772;2.718;2023-04-06T11:05:14;101766.13;;;30.82;30.59
51460;BME280;37534;39.772;2.718;2023-04-06T11:07:40;101758.16;;;31.55;29.39
51460;BME280;37534;39.772;2.718;2023-04-06T11:10:07;101756.34;;;32.18;29.16
51460;BME280;37534;39.772;2.718;2023-04-06T11:12:33;101761.97;;;31.53;29.43
51460;BME280;37534;39.772;2.718;2023-04-06T11:15:01;101767.53;;;31.59;29.29
51460;BME280;37534;39.772;2.718;2023-04-06T11:17:30;101751.63;;;31.22;30.07
51460;BME280;37534;39.772;2.718;2023-04-06T11:19:58;101756.69;;;31.79;29.13
51460;BME280;37534;39.772;2.718;2023-04-06T11:22:25;101760.47;;;32.12;29.03
51460;BME280;37534;39.772;2.718;2023-04-06T11:24:50;101753.78;;;31.72;28.89
51460;BME280;37534;39.772;2.718;2023-04-06T11:27:17;101765.03;;;31.48;29.82
51460;BME280;37534;39.772;2.718;2023-04-06T11:29:43;101764.38;;;32.00;28.69
51460;BME280;37534;39.772;2.718;2023-04-06T11:32:11;101762.03;;;31.79;29.40
51460;BME280;37534;39.772;2.718;2023-04-06T11:34:47;101759.56;;;32.03;29.45
51460;BME280;37534;39.772;2.718;2023-04-06T11:37:16;101763.19;;;31.58;29.77
51460;BME280;37534;39.772;2.718;2023-04-06T11:39:52;101758.06;;;31.01;30.18
51460;BME280;37534;39.772;2.718;2023-04-06T11:42:27;101759.97;;;31.73;29.24
51460;BME280;37534;39.772;2.718;2023-04-06T11:44:59;101746.63;;;31.73;28.87
51460;BME280;37534;39.772;2.718;2023-04-06T11:47:29;101763.66;;;31.54;29.80
51460;BME280;37534;39.772;2.718;2023-04-06T11:49:55;101761.66;;;31.74;29.38
51460;BME280;37534;39.772;2.718;2023-04-06T11:52:27;101761.69;;;31.46;29.51
51460;BME280;37534;39.772;2.718;2023-04-06T11:54:53;101761.56;;;32.28;28.88
51460;BME280;37534;39.772;2.718;2023-04-06T11:57:21;101760.50;;;32.47;28.80
51460;BME280;37534;39.772;2.718;2023-04-06T11:59:48;101754.72;;;32.86;28.35
51460;BME280;37534;39.772;2.718;2023-04-06T12:02:13;101744.50;;;32.81;28.17
51460;BME280;37534;39.772;2.718;2023-04-06T12:04:39;101757.84;;;33.24;27.83
51460;BME280;37534;39.772;2.718;2023-04-06T12:07:05;101754.50;;;33.22;27.94
51460;BME280;37534;39.772;2.718;2023-04-06T12:09:30;101755.53;;;32.52;28.27
51460;BME280;37534;39.772;2.718;2023-04-06T12:11:56;101746.28;;;32.12;28.93
51460;BME280;37534;39.772;2.718;2023-04-06T12:14:22;101746.31;;;31.76;28.72
51460;BME280;37534;39.772;2.718;2023-04-06T12:16:48;101732.84;;;32.21;28.98
51460;BME280;37534;39.772;2.718;2023-04-06T12:19:14;101730.78;;;32.76;28.30
51460;BME280;37534;39.772;2.718;2023-04-06T12:21:39;101742.16;;;33.21;28.02
51460;BME280;37534;39.772;2.718;2023-04-06T12:24:06;101742.50;;;33.50;27.50
51460;BME280;37534;39.772;2.718;2023-04-06T12:26:32;101734.94;;;32.70;28.05
51460;BME280;37534;39.772;2.718;2023-04-06T12:29:01;101740.78;;;31.05;29.43
51460;BME280;37534;39.772;2.718;2023-04-06T12:31:32;101729.38;;;32.29;28.22
51460;BME280;37534;39.772;2.718;2023-04-06T12:33:59;101731.44;;;33.21;27.83
51460;BME280;37534;39.772;2.718;2023-04-06T12:36:26;101739.69;;;33.68;27.52
51460;BME280;37534;39.772;2.718;2023-04-06T12:38:51;101725.69;;;33.07;27.62
51460;BME280;37534;39.772;2.718;2023-04-06T12:41:18;101728.47;;;33.57;27.77
51460;BME280;37534;39.772;2.718;2023-04-06T12:43:44;101734.69;;;33.82;26.80
51460;BME280;37534;39.772;2.718;2023-04-06T12:46:10;101716.25;;;33.38;26.98
51460;BME280;37534;39.772;2.718;2023-04-06T12:48:36;101713.41;;;33.64;26.41
51460;BME280;37534;39.772;2.718;2023-04-06T12:51:04;101722.81;;;33.76;27.04
51460;BME280;37534;39.772;2.718;2023-04-06T12:53:34;101706.59;;;32.43;28.30
51460;BME280;37534;39.772;2.718;2023-04-06T12:56:09;101708.88;;;32.64;27.55
51460;BME280;37534;39.772;2.718;2023-04-06T12:58:36;101700.94;;;32.46;28.03